Terminal Aerodrome Forecast
Issued by NWS

Home | Current Version | Previous Version | Graphics & Text | Print | Product List | Glossary On
Versions: 1 2 3 4 5 6 7 8 9 10 11 12 13 14 15 16 17 18 19 20 21 22
000
FTUS43 KIWX 191700
TAFSBN
TAF
KSBN 191727Z 1918/2018 19011KT P6SM SCT030 BKN250
     FM200600 22008KT P6SM SCT080 BKN150
     FM201600 28012KT P6SM VCSH SCT015 OVC025=

USA.gov is the U.S. government's official web portal to all federal, state and local government web resources and services.